Time;durP1;ratioP1;P1;durP2;ratioP2;P2;SDS_P1;SDS_P2;PMS_P1;PMS_P2;Temp;Humidity;BMP_temperature;BMP_pressure;BME280_temperature;BME280_humidity;BME280_pressure;Samples;Min_cycle;Max_cycle;Signal;HPM_P1;HPM_P2
2023/03/30 00:01:13;;;;;;;0.30;0.30;;;;;;;9.73;82.80;101269.56;5076609;28;20028;-63
2023/03/30 00:03:39;;;;;;;0.20;0.20;;;;;;;9.65;82.67;101263.69;5077208;28;20061;-65
2023/03/30 00:06:06;;;;;;;0.30;0.30;;;;;;;9.68;82.46;101270.56;5077057;28;20266;-64
2023/03/30 00:08:34;;;;;;;0.20;0.20;;;;;;;9.68;82.29;101262.22;5076219;28;20059;-63
2023/03/30 00:11:09;;;;;;;0.20;0.20;;;;;;;9.73;82.43;101258.44;5076369;28;20097;-62
2023/03/30 00:13:35;;;;;;;0.20;0.20;;;;;;;9.75;82.42;101268.09;5076302;28;20101;-64
2023/03/30 00:16:05;;;;;;;0.20;0.20;;;;;;;9.68;81.93;101251.09;5076963;28;20062;-63
2023/03/30 00:18:33;;;;;;;0.20;0.20;;;;;;;9.63;81.68;101254.03;5093534;28;20089;-63
2023/03/30 00:21:01;;;;;;;0.20;0.20;;;;;;;9.68;81.72;101262.22;5077100;28;20359;-63
2023/03/30 00:23:29;;;;;;;0.20;0.20;;;;;;;9.77;81.36;101253.88;5076188;28;20122;-63
2023/03/30 00:25:55;;;;;;;0.20;0.20;;;;;;;9.84;81.22;101257.75;5094963;28;20103;-64
2023/03/30 00:28:21;;;;;;;0.20;0.20;;;;;;;9.86;80.90;101252.69;5076196;28;20055;-63
2023/03/30 00:30:47;;;;;;;0.20;0.20;;;;;;;9.85;80.66;101250.22;5076724;28;20111;-64
2023/03/30 00:33:16;;;;;;;0.20;0.20;;;;;;;9.85;81.37;101251.03;5076065;28;20032;-62
2023/03/30 00:35:41;;;;;;;0.20;0.20;;;;;;;9.85;81.15;101250.22;5076032;28;20024;-63
2023/03/30 00:38:09;;;;;;;0.20;0.20;;;;;;;9.90;80.42;101248.06;5076331;28;20036;-64
2023/03/30 00:40:37;;;;;;;0.20;0.20;;;;;;;9.83;80.71;101239.44;5076553;28;20111;-63
2023/03/30 00:43:14;;;;;;;0.20;0.20;;;;;;;9.76;81.14;101230.81;5075506;28;20035;-64
2023/03/30 00:45:42;;;;;;;0.20;0.20;;;;;;;9.76;80.79;101236.38;5075890;28;20028;-62
2023/03/30 00:48:16;;;;;;;0.20;0.20;;;;;;;9.76;80.21;101236.38;5075600;28;20024;-63
2023/03/30 00:50:50;;;;;;;0.20;0.20;;;;;;;9.75;81.25;101234.75;5092731;28;20023;-63
2023/03/30 00:53:24;;;;;;;0.20;0.20;;;;;;;9.82;81.04;101235.03;5076283;28;20439;-62
2023/03/30 00:55:52;;;;;;;0.20;0.20;;;;;;;9.79;80.25;101230.13;5093202;28;20032;-63
2023/03/30 00:58:21;;;;;;;0.25;0.25;;;;;;;9.84;80.34;101227.19;5075542;28;20028;-64
2023/03/30 01:00:49;;;;;;;0.20;0.20;;;;;;;9.67;80.49;101227.25;5076342;28;20020;-64
2023/03/30 01:03:17;;;;;;;0.20;0.20;;;;;;;9.71;80.69;101222.66;5075709;28;20032;-63
2023/03/30 01:05:44;;;;;;;0.20;0.20;;;;;;;9.72;80.70;101218.72;5093393;28;20020;-64
2023/03/30 01:08:15;;;;;;;0.20;0.20;;;;;;;9.64;80.84;101222.34;5065082;28;20045;-63
2023/03/30 01:10:41;;;;;;;0.20;0.20;;;;;;;9.64;81.10;101228.72;5052324;28;20099;-63
2023/03/30 01:13:09;;;;;;;0.20;0.20;;;;;;;9.55;81.05;101224.34;5052174;28;20032;-63
2023/03/30 01:15:49;;;;;;;0.20;0.20;;;;;;;9.57;81.32;101222.03;5052865;28;20348;-63
2023/03/30 01:18:26;;;;;;;0.20;0.20;;;;;;;9.42;81.53;101201.97;5052498;28;20041;-65
2023/03/30 01:21:04;;;;;;;0.20;0.20;;;;;;;9.56;81.35;101223.19;5052757;28;20171;-63
2023/03/30 01:23:46;;;;;;;0.20;0.20;;;;;;;9.67;81.25;101221.69;5052175;28;20026;-63
2023/03/30 01:26:37;;;;;;;0.20;0.20;;;;;;;9.57;81.60;101222.84;5052995;28;20052;-62
2023/03/30 01:29:37;;;;;;;0.20;0.20;;;;;;;9.51;81.54;101215.03;5052085;28;20032;-64
2023/03/30 01:32:24;;;;;;;0.20;0.20;;;;;;;9.50;82.36;101218.97;5052129;28;20029;-64
2023/03/30 01:34:59;;;;;;;0.20;0.20;;;;;;;9.48;82.38;101207.34;5052653;28;20060;-62
2023/03/30 01:37:33;;;;;;;0.20;0.20;;;;;;;9.40;82.39;101204.25;5052658;28;20044;-63
2023/03/30 01:40:07;;;;;;;0.20;0.20;;;;;;;9.33;82.64;101201.19;5052523;28;20031;-62
2023/03/30 01:42:46;;;;;;;0.20;0.20;;;;;;;9.47;81.97;101208.50;5051984;28;20043;-62
2023/03/30 01:45:42;;;;;;;0.20;0.20;;;;;;;9.31;81.90;101200.69;5051920;28;20025;-62
2023/03/30 01:48:12;;;;;;;0.20;0.20;;;;;;;9.31;82.53;101209.00;5051905;28;20029;-61
2023/03/30 01:50:46;;;;;;;0.20;0.20;;;;;;;9.21;83.37;101209.34;5051894;28;20078;-62
2023/03/30 01:53:30;;;;;;;0.30;0.30;;;;;;;9.09;83.91;101210.03;5052365;28;20364;-62
2023/03/30 01:56:20;;;;;;;0.25;0.25;;;;;;;9.08;84.08;101207.59;5056390;28;20525;-64
2023/03/30 01:58:56;;;;;;;0.20;0.20;;;;;;;9.17;84.48;101206.44;5056722;28;20036;-62
2023/03/30 02:01:24;;;;;;;0.20;0.20;;;;;;;9.16;84.41;101206.75;5055527;28;20060;-62
2023/03/30 02:03:55;;;;;;;0.20;0.20;;;;;;;9.12;84.54;101197.47;5056064;28;20032;-61
2023/03/30 02:06:29;;;;;;;0.20;0.20;;;;;;;9.11;85.01;101201.38;5056456;28;20033;-62
2023/03/30 02:08:59;;;;;;;0.30;0.30;;;;;;;9.03;85.40;101188.31;5055227;28;20422;-63
2023/03/30 02:11:27;;;;;;;0.20;0.20;;;;;;;9.05;85.82;101199.91;5055669;28;20530;-64
2023/03/30 02:13:57;;;;;;;0.20;0.20;;;;;;;9.07;85.66;101192.88;5054964;28;20025;-63
2023/03/30 02:16:45;;;;;;;0.20;0.20;;;;;;;9.07;85.82;101203.19;5055638;28;20063;-62
2023/03/30 02:19:14;;;;;;;0.20;0.20;;;;;;;9.09;86.21;101198.09;5055831;28;20025;-63
2023/03/30 02:21:43;;;;;;;0.20;0.20;;;;;;;9.14;85.59;101192.38;5055479;28;20029;-67
2023/03/30 02:24:17;;;;;;;0.20;0.20;;;;;;;9.09;85.49;101195.31;5055950;28;20033;-63
2023/03/30 02:26:51;;;;;;;0.20;0.20;;;;;;;9.07;87.05;101197.63;5054797;28;20025;-63
2023/03/30 02:29:18;;;;;;;0.20;0.20;;;;;;;9.01;86.83;101199.75;5055086;28;20033;-63
2023/03/30 02:31:47;;;;;;;0.20;0.20;;;;;;;9.15;85.74;101194.00;5055304;28;20468;-63
2023/03/30 02:34:44;;;;;;;0.20;0.20;;;;;;;9.12;84.95;101203.81;5055198;28;20057;-62
2023/03/30 02:37:20;;;;;;;0.25;0.25;;;;;;;9.05;86.22;101197.94;5054719;28;20033;-63
2023/03/30 02:39:48;;;;;;;0.20;0.20;;;;;;;9.22;85.73;101205.44;5055686;28;20033;-64
2023/03/30 02:42:25;;;;;;;0.20;0.20;;;;;;;9.12;85.51;101203.00;5055597;28;20372;-63
2023/03/30 02:45:20;;;;;;;0.30;0.30;;;;;;;9.09;86.41;101200.88;5055313;28;20486;-63
2023/03/30 02:48:11;;;;;;;0.20;0.20;;;;;;;9.17;85.54;101203.66;5019212;28;20037;-63
2023/03/30 02:50:43;;;;;;;0.20;0.20;;;;;;;9.13;86.22;101208.22;5014624;28;20045;-62
2023/03/30 02:53:22;;;;;;;0.30;0.30;;;;;;;9.08;86.68;101210.34;5054565;28;20028;-62
2023/03/30 02:56:12;;;;;;;0.20;0.20;;;;;;;9.05;86.87;101205.44;5054568;28;20040;-63
2023/03/30 02:58:50;;;;;;;0.20;0.20;;;;;;;9.18;86.11;101202.50;5054903;28;20116;-65
2023/03/30 03:01:25;;;;;;;0.20;0.20;;;;;;;9.15;85.87;101194.81;5055351;28;20433;-63
2023/03/30 03:03:57;;;;;;;0.20;0.20;;;;;;;9.13;86.45;101197.13;5054761;28;20029;-64
2023/03/30 03:06:26;;;;;;;0.20;0.20;;;;;;;9.15;86.32;101194.00;5055317;28;20472;-63
2023/03/30 03:08:56;;;;;;;0.20;0.20;;;;;;;9.10;86.51;101208.06;5054159;28;20167;-62
2023/03/30 03:11:24;;;;;;;0.20;0.20;;;;;;;8.99;87.44;101196.47;5054815;28;20048;-63
2023/03/30 03:13:54;;;;;;;0.20;0.20;;;;;;;9.07;87.24;101187.34;5054135;28;20033;-63
2023/03/30 03:16:22;;;;;;;0.20;0.20;;;;;;;9.01;87.05;101182.28;5054187;28;20036;-62
2023/03/30 03:18:52;;;;;;;0.20;0.20;;;;;;;9.02;88.18;101184.72;5054377;28;20044;-63
2023/03/30 03:21:18;;;;;;;0.20;0.20;;;;;;;9.07;87.43;101175.41;5054023;28;20033;-63
2023/03/30 03:23:47;;;;;;;0.20;0.20;;;;;;;9.01;87.16;101177.53;5054039;28;20029;-62
2023/03/30 03:26:13;;;;;;;0.20;0.20;;;;;;;8.99;87.99;101179.00;5053952;28;20025;-64
2023/03/30 03:28:41;;;;;;;0.20;0.20;;;;;;;9.06;87.56;101173.78;5054525;28;20124;-63
2023/03/30 03:31:12;;;;;;;0.20;0.20;;;;;;;9.11;87.15;101176.41;5055712;28;20098;-62
2023/03/30 03:33:40;;;;;;;0.20;0.20;;;;;;;9.00;87.39;101181.47;5054342;28;20029;-62
2023/03/30 03:36:10;;;;;;;0.30;0.30;;;;;;;9.00;88.17;101180.63;5053783;28;20040;-63
2023/03/30 03:38:36;;;;;;;0.20;0.20;;;;;;;8.76;87.90;101148.66;5054723;28;20108;-63
2023/03/30 03:41:03;;;;;;;0.20;0.20;;;;;;;8.99;87.54;101174.25;5053688;28;20115;-63
2023/03/30 03:43:31;;;;;;;0.20;0.20;;;;;;;8.95;88.40;101173.31;5054449;28;20367;-63
2023/03/30 03:45:57;;;;;;;0.20;0.20;;;;;;;9.01;87.72;101172.00;5053584;28;20036;-64
2023/03/30 03:48:23;;;;;;;0.20;0.20;;;;;;;8.98;88.30;101171.81;5055458;28;20468;-63
2023/03/30 03:50:54;;;;;;;0.20;0.20;;;;;;;9.03;88.50;101179.97;5053794;28;20035;-63
2023/03/30 03:53:21;;;;;;;0.20;0.20;;;;;;;8.99;87.92;101174.25;5053938;28;20025;-63
2023/03/30 03:55:49;;;;;;;0.20;0.20;;;;;;;9.07;87.89;101178.19;5053446;28;20064;-63
2023/03/30 03:58:15;;;;;;;0.20;0.20;;;;;;;8.98;88.68;101182.94;5054691;28;20036;-63
2023/03/30 04:00:44;;;;;;;0.20;0.20;;;;;;;9.04;88.93;101176.06;5053314;28;20130;-63
2023/03/30 04:03:11;;;;;;;0.20;0.20;;;;;;;9.04;88.25;101167.72;5053727;28;20029;-65
2023/03/30 04:05:41;;;;;;;0.20;0.20;;;;;;;8.72;88.00;101125.47;5056193;28;20162;-65
2023/03/30 04:08:10;;;;;;;0.20;0.20;;;;;;;8.96;88.69;101179.69;5053053;28;20083;-63
2023/03/30 04:10:39;;;;;;;0.20;0.20;;;;;;;8.99;88.74;101190.09;5053691;28;20024;-62
2023/03/30 04:13:05;;;;;;;0.20;0.20;;;;;;;8.96;88.95;101191.59;5052992;28;20028;-63
2023/03/30 04:15:34;;;;;;;0.20;0.20;;;;;;;8.99;89.48;101199.25;5053006;28;20032;-62
2023/03/30 04:18:00;;;;;;;0.20;0.20;;;;;;;9.02;89.20;101198.59;5052335;28;20531;-63
2023/03/30 04:20:26;;;;;;;0.20;0.20;;;;;;;9.05;89.00;101197.13;5052970;28;20028;-63
2023/03/30 04:22:53;;;;;;;0.20;0.20;;;;;;;9.11;88.82;101193.88;5053168;28;20068;-62
2023/03/30 04:25:24;;;;;;;0.30;0.30;;;;;;;9.04;88.30;101198.28;5053688;28;20173;-63
2023/03/30 04:27:55;;;;;;;0.20;0.20;;;;;;;9.02;89.39;101195.81;5053832;28;20503;-63
2023/03/30 04:30:24;;;;;;;0.20;0.20;;;;;;;9.02;89.17;101203.34;5053058;28;20021;-62
2023/03/30 04:33:04;;;;;;;0.20;0.20;;;;;;;9.07;88.87;101200.41;5052666;28;20467;-62
2023/03/30 04:35:33;;;;;;;0.30;0.30;;;;;;;8.98;89.00;101205.13;5052704;28;20029;-61
2023/03/30 04:38:00;;;;;;;0.20;0.20;;;;;;;9.14;88.82;101187.63;5052880;28;20522;-63
2023/03/30 04:40:31;;;;;;;0.28;0.28;;;;;;;9.10;88.18;101180.28;5052972;28;20393;-64
2023/03/30 04:43:02;;;;;;;0.20;0.20;;;;;;;9.10;88.90;101183.06;5053854;28;20040;-63
2023/03/30 04:45:29;;;;;;;0.20;0.20;;;;;;;9.00;89.39;101186.19;5052638;28;20116;-63
2023/03/30 04:47:55;;;;;;;0.20;0.20;;;;;;;9.14;88.93;101195.16;5053099;28;20079;-64
2023/03/30 04:50:21;;;;;;;0.30;0.30;;;;;;;9.12;88.98;101191.91;5053087;28;20067;-63
2023/03/30 04:52:49;;;;;;;0.20;0.20;;;;;;;9.23;89.34;101195.16;5052427;28;20106;-64
2023/03/30 04:55:14;;;;;;;0.22;0.22;;;;;;;9.32;88.90;101196.78;5053073;28;20033;-62
2023/03/30 04:57:44;;;;;;;0.20;0.20;;;;;;;9.39;87.69;101208.19;5052737;28;20464;-63
2023/03/30 05:00:15;;;;;;;0.20;0.20;;;;;;;9.44;88.38;101198.88;5052696;28;20029;-63
2023/03/30 05:02:47;;;;;;;0.20;0.20;;;;;;;9.49;88.58;101203.44;5052650;28;20029;-63
2023/03/30 05:05:12;;;;;;;0.20;0.20;;;;;;;9.56;87.41;101204.56;5052920;28;20513;-64
2023/03/30 05:07:38;;;;;;;0.20;0.20;;;;;;;9.68;87.33;101201.06;5057195;28;20032;-64
2023/03/30 05:10:09;;;;;;;0.20;0.20;;;;;;;9.78;86.15;101202.69;5076267;28;20105;-63
2023/03/30 05:12:42;;;;;;;0.20;0.20;;;;;;;9.74;85.52;101191.41;5075623;28;20122;-64
2023/03/30 05:15:08;;;;;;;0.22;0.22;;;;;;;9.92;85.38;101206.88;5093514;28;20020;-63
2023/03/30 05:17:37;;;;;;;0.20;0.20;;;;;;;10.09;84.66;101194.03;5075516;28;20035;-62
2023/03/30 05:20:07;;;;;;;0.22;0.22;;;;;;;10.54;82.83;101205.41;5075919;28;20105;-63
2023/03/30 05:22:35;;;;;;;0.20;0.20;;;;;;;10.72;80.89;101208.91;5075880;28;20413;-63
2023/03/30 05:25:03;;;;;;;0.20;0.20;;;;;;;10.74;80.83;101212.97;5092659;28;20110;-62
2023/03/30 05:27:31;;;;;;;0.20;0.20;;;;;;;10.82;79.15;101219.63;5093661;28;20036;-65
2023/03/30 05:29:57;;;;;;;0.20;0.20;;;;;;;10.95;78.17;101215.75;5097723;28;20024;-62
2023/03/30 05:32:22;;;;;;;0.20;0.20;;;;;;;11.17;77.66;101210.97;5079342;28;20065;-64
2023/03/30 05:34:51;;;;;;;0.20;0.20;;;;;;;11.61;76.67;101208.56;5079440;28;20039;-63
2023/03/30 05:37:19;;;;;;;0.20;0.20;;;;;;;11.98;75.14;101213.06;5079482;28;20039;-63
2023/03/30 05:39:45;;;;;;;0.20;0.20;;;;;;;12.35;72.37;101227.00;5079549;28;20020;-64
2023/03/30 05:42:16;;;;;;;0.20;0.20;;;;;;;12.49;70.05;101221.91;5079335;28;20031;-64
2023/03/30 05:44:43;;;;;;;0.20;0.20;;;;;;;12.47;69.70;101224.22;5079817;28;20020;-63
2023/03/30 05:47:09;;;;;;;0.20;0.20;;;;;;;12.39;69.68;101233.53;5079261;28;20056;-62
2023/03/30 05:49:37;;;;;;;0.20;0.20;;;;;;;12.35;69.91;101235.38;5079220;28;20058;-64
2023/03/30 05:52:05;;;;;;;0.20;0.20;;;;;;;12.31;70.24;101231.69;5079537;28;20047;-62
2023/03/30 05:54:31;;;;;;;0.20;0.20;;;;;;;12.19;69.85;101226.09;5079331;28;20348;-62
2023/03/30 05:56:59;;;;;;;0.20;0.20;;;;;;;12.21;70.49;101219.00;5079348;28;20062;-63
2023/03/30 05:59:25;;;;;;;0.20;0.20;;;;;;;12.40;70.57;101228.75;5079068;28;20028;-64
2023/03/30 06:01:50;;;;;;;0.20;0.20;;;;;;;13.06;68.74;101231.22;5079197;28;20118;-62
2023/03/30 06:04:21;;;;;;;0.20;0.20;;;;;;;13.57;64.98;101226.69;5079178;28;20060;-64
2023/03/30 06:06:47;;;;;;;0.20;0.20;;;;;;;13.85;63.35;101228.63;5095965;28;20086;-62
2023/03/30 06:09:12;;;;;;;0.20;0.20;;;;;;;14.34;62.24;101225.47;5060239;28;20053;-63
2023/03/30 06:11:39;;;;;;;0.20;0.20;;;;;;;14.48;58.54;101220.22;5055478;28;20099;-65
2023/03/30 06:14:09;;;;;;;0.20;0.20;;;;;;;14.40;58.88;101215.59;5055163;28;20392;-63
2023/03/30 06:16:37;;;;;;;0.20;0.20;;;;;;;13.99;59.48;101226.19;5055190;28;20035;-63
2023/03/30 06:19:05;;;;;;;0.20;0.20;;;;;;;14.14;59.91;101219.78;5055781;28;20025;-63
2023/03/30 06:21:30;;;;;;;0.20;0.20;;;;;;;14.11;58.46;101217.72;5055444;28;20115;-62
2023/03/30 06:23:56;;;;;;;0.20;0.20;;;;;;;14.29;58.14;101220.13;5055145;28;20547;-64
2023/03/30 06:26:24;;;;;;;0.20;0.20;;;;;;;14.40;58.77;101224.81;5055058;28;20029;-62
2023/03/30 06:28:52;;;;;;;0.20;0.20;;;;;;;14.36;59.37;101223.09;5056574;28;20392;-63
2023/03/30 06:31:20;;;;;;;0.20;0.20;;;;;;;14.51;58.21;101230.69;5055981;28;20044;-63
2023/03/30 06:33:49;;;;;;;0.20;0.20;;;;;;;14.63;58.94;101224.97;5055196;28;20035;-62
2023/03/30 06:36:15;;;;;;;0.20;0.20;;;;;;;14.84;58.00;101235.84;5055464;28;20044;-63
2023/03/30 06:38:43;;;;;;;0.20;0.20;;;;;;;14.89;57.40;101231.94;5054851;28;20103;-62
2023/03/30 06:41:13;;;;;;;0.20;0.20;;;;;;;14.83;57.94;101230.63;5054018;28;20032;-63
2023/03/30 06:43:41;;;;;;;0.20;0.20;;;;;;;14.95;56.83;101227.69;5054697;28;20029;-63
2023/03/30 06:46:11;;;;;;;0.20;0.20;;;;;;;14.74;57.55;101238.41;5054895;28;20033;-64
2023/03/30 06:48:36;;;;;;;0.20;0.20;;;;;;;15.19;56.71;101244.22;5054480;28;20116;-63
2023/03/30 06:51:03;;;;;;;0.20;0.20;;;;;;;15.39;55.95;101247.84;5054417;28;20126;-63
2023/03/30 06:53:31;;;;;;;0.20;0.20;;;;;;;15.50;55.76;101241.59;5053930;28;20025;-62
2023/03/30 06:55:57;;;;;;;0.20;0.20;;;;;;;15.10;56.10;101243.63;5054791;28;20055;-63
2023/03/30 06:58:26;;;;;;;0.20;0.20;;;;;;;15.37;56.37;101244.56;5055024;28;20440;-62
2023/03/30 07:00:51;;;;;;;0.20;0.20;;;;;;;15.01;56.51;101242.22;5054251;28;20029;-64
2023/03/30 07:03:17;;;;;;;0.20;0.20;;;;;;;15.03;58.35;101246.28;5054855;28;20029;-63
2023/03/30 07:05:49;;;;;;;0.20;0.20;;;;;;;14.97;58.23;101233.75;5054265;28;20039;-62
2023/03/30 07:08:18;;;;;;;0.20;0.20;;;;;;;15.23;58.09;101237.84;5054384;28;20053;-65
2023/03/30 07:10:50;;;;;;;0.20;0.20;;;;;;;15.32;58.50;101241.25;5055271;28;20028;-65
2023/03/30 07:13:16;;;;;;;0.20;0.20;;;;;;;15.49;56.91;101251.22;5054112;28;20056;-63
2023/03/30 07:15:42;;;;;;;0.20;0.20;;;;;;;15.96;56.32;101248.13;5055324;28;20025;-63
2023/03/30 07:18:10;;;;;;;0.20;0.20;;;;;;;15.91;55.93;101254.84;5053948;28;20032;-65
2023/03/30 07:20:39;;;;;;;0.20;0.20;;;;;;;16.42;53.62;101259.34;5054149;28;20112;-64
2023/03/30 07:23:07;;;;;;;0.20;0.20;;;;;;;16.09;53.12;101258.00;5054015;28;20553;-63
2023/03/30 07:25:32;;;;;;;0.20;0.20;;;;;;;16.11;54.11;101255.63;5053638;28;20108;-62
2023/03/30 07:28:01;;;;;;;0.20;0.20;;;;;;;16.00;54.73;101259.41;5054233;28;20132;-64
2023/03/30 07:30:29;;;;;;;0.20;0.20;;;;;;;15.87;55.51;101250.34;5054149;28;20025;-63
2023/03/30 07:32:57;;;;;;;0.20;0.20;;;;;;;15.60;56.43;101258.66;5053766;28;20033;-63
2023/03/30 07:35:26;;;;;;;0.20;0.20;;;;;;;15.46;56.76;101250.78;5054092;28;20083;-64
2023/03/30 07:37:52;;;;;;;0.20;0.20;;;;;;;15.62;57.17;101259.09;5055345;28;20029;-63
2023/03/30 07:40:18;;;;;;;0.20;0.20;;;;;;;15.67;57.55;101252.41;5054715;28;20017;-64
2023/03/30 07:42:47;;;;;;;0.20;0.20;;;;;;;15.52;57.76;101251.28;5053668;28;20025;-63
2023/03/30 07:45:15;;;;;;;0.20;0.20;;;;;;;15.92;56.77;101258.47;5053940;28;20025;-62
2023/03/30 07:47:43;;;;;;;0.20;0.20;;;;;;;16.51;54.38;101262.69;5053540;28;20040;-64
2023/03/30 07:50:09;;;;;;;0.20;0.20;;;;;;;16.50;55.50;101266.69;5053773;28;20101;-64
2023/03/30 07:52:35;;;;;;;0.20;0.20;;;;;;;16.01;57.83;101252.63;5052833;28;20526;-63
2023/03/30 07:55:01;;;;;;;0.20;0.20;;;;;;;16.12;57.02;101245.19;5053680;28;20020;-64
2023/03/30 07:57:28;;;;;;;0.20;0.20;;;;;;;15.98;56.78;101251.38;5053190;28;20037;-64
2023/03/30 07:59:55;;;;;;;0.20;0.20;;;;;;;16.60;56.12;101242.75;5053365;28;20491;-63
2023/03/30 08:02:23;;;;;;;0.20;0.20;;;;;;;16.94;53.94;101257.75;5053372;28;20163;-63
2023/03/30 08:04:48;;;;;;;0.20;0.20;;;;;;;17.04;53.90;101257.06;5053320;28;20488;-62
2023/03/30 08:07:17;;;;;;;0.20;0.20;;;;;;;17.35;53.27;101261.47;5052898;28;20035;-63
2023/03/30 08:09:45;;;;;;;0.20;0.20;;;;;;;17.22;53.40;101268.56;5093544;28;20483;-62
2023/03/30 08:12:13;;;;;;;0.20;0.20;;;;;;;17.22;52.82;101257.31;5076838;28;20055;-63
2023/03/30 08:14:41;;;;;;;0.20;0.20;;;;;;;17.18;53.41;101260.06;5076164;28;20490;-63
2023/03/30 08:17:09;;;;;;;0.20;0.20;;;;;;;16.57;55.02;101266.81;5076063;28;20106;-63
2023/03/30 08:19:37;;;;;;;0.20;0.20;;;;;;;16.95;54.03;101253.75;5076343;28;20036;-63
2023/03/30 08:22:06;;;;;;;0.20;0.20;;;;;;;17.14;54.04;101256.41;5076117;28;20522;-63
2023/03/30 08:24:37;;;;;;;0.20;0.20;;;;;;;16.71;55.14;101255.78;5076568;28;20466;-64
2023/03/30 08:27:05;;;;;;;0.20;0.20;;;;;;;16.42;55.92;101254.53;5076262;28;20433;-63
2023/03/30 08:29:33;;;;;;;0.20;0.20;;;;;;;16.85;55.36;101248.78;5075956;28;20032;-64
2023/03/30 08:32:01;;;;;;;0.20;0.20;;;;;;;17.28;52.88;101256.59;5076466;28;20031;-64
2023/03/30 08:34:27;;;;;;;0.20;0.20;;;;;;;17.22;52.39;101258.13;5094005;28;20118;-64
2023/03/30 08:36:58;;;;;;;0.20;0.20;;;;;;;17.54;51.89;101260.50;5075913;28;20024;-63
2023/03/30 08:39:32;;;;;;;0.20;0.20;;;;;;;17.57;51.68;101251.28;5076129;28;20035;-64
2023/03/30 08:42:06;;;;;;;0.20;0.20;;;;;;;18.11;50.20;101258.31;5075896;28;20364;-63
2023/03/30 08:44:49;;;;;;;0.20;0.20;;;;;;;18.16;49.70;101260.75;5075829;28;20067;-62
2023/03/30 08:47:26;;;;;;;0.10;0.10;;;;;;;18.06;48.83;101255.88;5076290;28;20032;-65
2023/03/30 08:50:05;;;;;;;0.20;0.20;;;;;;;18.76;46.84;101249.19;5093813;28;20028;-64
2023/03/30 08:52:34;;;;;;;0.20;0.20;;;;;;;19.29;45.65;101248.66;5092390;28;20096;-64
2023/03/30 08:55:00;;;;;;;0.20;0.20;;;;;;;18.49;47.60;101222.41;5093495;28;20035;-64
2023/03/30 08:57:51;;;;;;;0.20;0.20;;;;;;;18.93;47.23;101242.03;5075635;28;20073;-64
2023/03/30 09:00:28;;;;;;;0.20;0.20;;;;;;;18.94;46.40;101242.84;5075587;28;20090;-64
2023/03/30 09:03:13;;;;;;;0.20;0.20;;;;;;;18.15;46.49;101247.06;5092860;28;20065;-65
2023/03/30 09:05:48;;;;;;;0.20;0.20;;;;;;;18.27;47.40;101244.78;5075417;28;20032;-65
2023/03/30 09:08:21;;;;;;;0.20;0.20;;;;;;;18.31;47.97;101250.44;5075270;28;20491;-65
2023/03/30 09:10:58;;;;;;;0.20;0.20;;;;;;;18.23;47.21;101249.56;5075618;28;20036;-64
2023/03/30 09:13:30;;;;;;;0.20;0.20;;;;;;;17.83;48.71;101241.13;5093016;28;20143;-64
2023/03/30 09:16:08;;;;;;;0.20;0.20;;;;;;;18.25;47.23;101235.91;5091885;28;20082;-64
2023/03/30 09:18:38;;;;;;;0.20;0.20;;;;;;;18.78;46.86;101241.13;5092035;28;20123;-64
2023/03/30 09:21:05;;;;;;;0.20;0.20;;;;;;;19.62;46.07;101252.44;5092517;28;20095;-64
2023/03/30 09:23:31;;;;;;;0.20;0.20;;;;;;;19.83;45.27;101238.34;5074997;28;20052;-65
2023/03/30 09:26:01;;;;;;;0.20;0.20;;;;;;;19.58;45.33;101235.44;5075772;28;20025;-62
2023/03/30 09:28:52;;;;;;;0.20;0.20;;;;;;;18.37;47.91;101239.59;5075123;28;20029;-63
2023/03/30 09:31:36;;;;;;;0.20;0.20;;;;;;;18.61;48.16;101226.91;5075025;28;20058;-64
2023/03/30 09:34:17;;;;;;;0.20;0.20;;;;;;;18.38;47.96;101233.59;5092700;28;20420;-63
2023/03/30 09:37:08;;;;;;;0.20;0.20;;;;;;;18.85;46.94;101234.72;5092437;28;20020;-63
2023/03/30 09:39:38;;;;;;;0.10;0.10;;;;;;;19.04;47.16;101236.44;5087337;28;20040;-63
2023/03/30 09:42:32;;;;;;;0.20;0.20;;;;;;;18.73;47.60;101230.22;5074813;28;20067;-64
2023/03/30 09:45:27;;;;;;;0.20;0.20;;;;;;;18.06;48.26;101193.91;5092372;28;20458;-61
2023/03/30 09:47:56;;;;;;;0.20;0.20;;;;;;;18.40;48.20;101230.38;5069392;28;20075;-62
2023/03/30 09:50:35;;;;;;;0.20;0.20;;;;;;;18.45;48.43;101227.19;5075090;28;20028;-61
2023/03/30 09:53:09;;;;;;;0.20;0.20;;;;;;;19.12;47.10;101218.34;5092343;28;20020;-64
2023/03/30 09:55:36;;;;;;;0.15;0.15;;;;;;;19.31;47.08;101223.66;5091552;28;20044;-63
2023/03/30 09:58:25;;;;;;;0.20;0.20;;;;;;;19.67;45.91;101212.50;5092852;28;20021;-63
2023/03/30 10:01:36;;;;;;;0.20;0.20;;;;;;;19.62;45.85;101210.88;5075451;28;20040;-63
2023/03/30 10:04:11;;;;;;;0.20;0.20;;;;;;;19.58;44.91;101220.53;5073020;28;20032;-63
2023/03/30 10:06:48;;;;;;;0.20;0.20;;;;;;;19.90;44.66;101212.13;5093531;28;20032;-63
2023/03/30 10:09:16;;;;;;;0.20;0.20;;;;;;;19.15;47.13;101214.75;5055777;28;20496;-63
2023/03/30 10:11:48;;;;;;;0.10;0.10;;;;;;;19.93;44.88;101207.72;5051707;28;20025;-62
2023/03/30 10:14:36;;;;;;;0.20;0.20;;;;;;;19.41;45.64;101204.34;5051621;28;20032;-63
2023/03/30 10:17:03;;;;;;;0.20;0.20;;;;;;;18.88;47.31;101193.66;5055013;28;20036;-63
2023/03/30 10:19:32;;;;;;;0.20;0.20;;;;;;;18.00;50.69;101196.28;5054967;28;20090;-65
2023/03/30 10:22:12;;;;;;;0.20;0.20;;;;;;;19.40;46.74;101197.91;5055016;28;20017;-64
2023/03/30 10:24:50;;;;;;;0.20;0.20;;;;;;;19.49;45.71;101191.84;5054688;28;20067;-62
2023/03/30 10:27:26;;;;;;;0.10;0.10;;;;;;;20.10;44.12;101189.97;5056010;28;20037;-62
2023/03/30 10:29:54;;;;;;;0.20;0.20;;;;;;;20.63;42.27;101178.59;5055138;28;20066;-64
2023/03/30 10:32:28;;;;;;;0.20;0.20;;;;;;;20.85;42.29;101185.00;5055021;28;20415;-64
2023/03/30 10:35:00;;;;;;;0.20;0.20;;;;;;;20.88;41.59;101189.03;5054786;28;20029;-62
2023/03/30 10:37:58;;;;;;;0.20;0.20;;;;;;;21.21;41.34;101190.53;5056043;28;20112;-63
2023/03/30 10:40:33;;;;;;;0.10;0.10;;;;;;;21.26;39.90;101187.25;5052126;28;20033;-63
2023/03/30 10:43:02;;;;;;;0.17;0.17;;;;;;;21.12;40.78;101184.50;5054571;28;20032;-62
2023/03/30 10:45:36;;;;;;;0.20;0.20;;;;;;;21.39;41.61;101182.75;5054591;28;20043;-63
2023/03/30 10:48:33;;;;;;;0.20;0.20;;;;;;;20.45;42.43;101177.78;5055149;28;20037;-62
2023/03/30 10:51:23;;;;;;;0.10;0.10;;;;;;;21.11;42.13;101160.25;5054435;28;20083;-65
2023/03/30 10:53:54;;;;;;;0.20;0.20;;;;;;;21.31;42.63;101158.56;5054129;28;20033;-63
2023/03/30 10:56:47;;;;;;;0.20;0.20;;;;;;;21.30;42.57;101168.25;5054838;28;20025;-63
2023/03/30 10:59:34;;;;;;;0.20;0.20;;;;;;;21.54;41.69;101174.19;5055104;28;20049;-63
2023/03/30 11:02:18;;;;;;;0.20;0.20;;;;;;;21.04;42.58;101172.41;5054275;28;20074;-64
2023/03/30 11:04:55;;;;;;;0.20;0.20;;;;;;;21.45;40.53;101174.63;5054960;28;20028;-64
2023/03/30 11:07:39;;;;;;;0.20;0.20;;;;;;;20.91;41.60;101172.03;5055197;28;20036;-62
2023/03/30 11:10:10;;;;;;;0.20;0.20;;;;;;;20.55;43.30;101188.31;5054718;28;20132;-63
2023/03/30 11:12:46;;;;;;;0.20;0.20;;;;;;;20.09;43.74;101191.97;5070649;28;20118;-64
2023/03/30 11:15:20;;;;;;;0.20;0.20;;;;;;;19.86;44.19;101192.34;5055060;28;20464;-64
2023/03/30 11:18:05;;;;;;;0.20;0.20;;;;;;;19.98;45.05;101179.06;5070792;28;20127;-64
2023/03/30 11:20:37;;;;;;;0.20;0.20;;;;;;;20.14;43.79;101176.66;5071463;28;20078;-66
2023/03/30 11:23:38;;;;;;;0.20;0.20;;;;;;;19.70;44.31;101175.00;5054272;28;20365;-63
2023/03/30 11:26:07;;;;;;;0.20;0.20;;;;;;;19.67;44.78;101172.19;5070366;28;20021;-63
2023/03/30 11:28:42;;;;;;;0.20;0.20;;;;;;;19.82;45.27;101188.75;5070864;28;20040;-62
2023/03/30 11:31:25;;;;;;;0.20;0.20;;;;;;;19.48;45.34;101176.94;5070528;28;20035;-62
2023/03/30 11:34:06;;;;;;;0.20;0.20;;;;;;;19.52;45.44;101176.97;5070704;28;20025;-65
2023/03/30 11:36:39;;;;;;;0.20;0.20;;;;;;;19.65;46.19;101166.13;5070461;28;20033;-63
2023/03/30 11:39:11;;;;;;;0.20;0.20;;;;;;;19.88;45.84;101172.19;5053720;28;20133;-62
2023/03/30 11:41:47;;;;;;;0.20;0.20;;;;;;;19.96;45.23;101161.69;5070353;28;20071;-63
2023/03/30 11:44:16;;;;;;;0.20;0.20;;;;;;;19.41;46.36;101168.47;5053884;28;20036;-62
2023/03/30 11:46:57;;;;;;;0.20;0.20;;;;;;;19.84;46.12;101172.19;5070996;28;20102;-62
2023/03/30 11:49:38;;;;;;;0.20;0.20;;;;;;;20.25;45.08;101156.84;5070701;28;20384;-63
2023/03/30 11:52:28;;;;;;;0.20;0.20;;;;;;;20.12;44.91;101153.63;5054378;28;20033;-61